Time;durP1;ratioP1;P1;durP2;ratioP2;P2;SDS_P1;SDS_P2;PMS_P1;PMS_P2;Temp;Humidity;BMP_temperature;BMP_pressure;BME280_temperature;BME280_humidity;BME280_pressure;Samples;Min_cycle;Max_cycle;Signal;HPM_P1;HPM_P2
2020/12/20 06:00:27;;;;;;;7.90;4.65;;;4.40;97.30;;;;;;5971462;23;20365;31
2020/12/20 06:02:53;;;;;;;10.43;5.13;;;4.40;97.30;;;;;;4875818;29;21010;-74
2020/12/20 06:05:20;;;;;;;7.80;4.87;;;4.40;97.30;;;;;;4878324;29;20947;-73
2020/12/20 06:07:54;;;;;;;8.50;5.00;;;4.40;97.30;;;;;;4877376;29;20180;-73
2020/12/20 06:10:25;;;;;;;8.73;5.20;;;4.40;97.30;;;;;;4880769;29;20491;-73
2020/12/20 06:12:53;;;;;;;9.43;4.37;;;4.40;97.30;;;;;;4880943;29;20414;-73
2020/12/20 06:15:24;;;;;;;9.30;5.10;;;4.50;97.30;;;;;;4879188;29;20482;-73
2020/12/20 06:17:55;;;;;;;7.83;4.50;;;4.40;97.30;;;;;;4878824;29;20422;-74
2020/12/20 06:20:32;;;;;;;10.43;5.40;;;4.40;97.30;;;;;;4880800;29;20474;-73
2020/12/20 06:22:58;;;;;;;10.83;5.70;;;4.40;97.30;;;;;;4879664;29;20444;-73
2020/12/20 06:25:29;;;;;;;8.80;5.63;;;4.40;97.30;;;;;;4876840;29;20466;-73
2020/12/20 06:28:04;;;;;;;7.10;4.47;;;4.40;97.30;;;;;;4880003;29;20470;-73
2020/12/20 06:30:33;;;;;;;10.40;5.17;;;4.40;97.30;;;;;;4879559;29;20517;-74
2020/12/20 06:33:04;;;;;;;11.13;5.63;;;4.40;97.30;;;;;;4879783;29;20832;-76
2020/12/20 06:35:32;;;;;;;9.03;4.93;;;4.40;97.30;;;;;;4879778;29;20964;-73
2020/12/20 06:37:58;;;;;;;11.60;5.10;;;4.30;97.30;;;;;;4881010;29;20450;-74
2020/12/20 06:40:30;;;;;;;11.10;5.30;;;4.30;97.30;;;;;;4879784;29;20454;-73
2020/12/20 06:42:57;;;;;;;7.70;4.60;;;4.30;97.30;;;;;;4879313;29;20461;-73
2020/12/20 06:45:23;;;;;;;7.30;4.83;;;4.30;97.30;;;;;;4879416;29;20888;-73
2020/12/20 06:47:52;;;;;;;6.47;4.23;;;4.30;97.30;;;;;;4879630;29;20796;-73
2020/12/20 06:50:41;;;;;;;10.00;5.20;;;4.30;97.30;;;;;;4880818;29;21023;-73
2020/12/20 06:53:11;;;;;;;9.80;4.97;;;4.30;97.30;;;;;;4880596;29;20437;-73
2020/12/20 06:55:37;;;;;;;12.63;4.90;;;4.20;97.30;;;;;;4879314;29;20493;-73
2020/12/20 06:58:11;;;;;;;9.23;5.00;;;4.20;97.30;;;;;;4879466;29;20450;-73
2020/12/20 07:00:50;;;;;;;8.43;5.20;;;4.20;97.30;;;;;;4878638;29;20446;-74
2020/12/20 07:03:24;;;;;;;8.47;4.67;;;4.10;97.30;;;;;;4879256;29;20934;-72
2020/12/20 07:05:51;;;;;;;9.40;5.33;;;4.10;97.30;;;;;;4879291;29;20418;-72
2020/12/20 07:08:30;;;;;;;7.80;4.90;;;4.10;97.30;;;;;;4878740;29;20856;-72
2020/12/20 07:11:02;;;;;;;7.50;4.33;;;4.00;97.30;;;;;;4891789;29;20446;-73
2020/12/20 07:13:43;;;;;;;8.30;5.53;;;4.00;97.30;;;;;;4876679;29;20406;-74
2020/12/20 07:16:43;;;;;;;10.70;5.47;;;3.90;97.30;;;;;;4887955;29;20493;-75
2020/12/20 07:19:26;;;;;;;7.80;5.07;;;3.90;97.30;;;;;;4871887;29;20434;-74
2020/12/20 07:22:01;;;;;;;9.77;5.47;;;3.90;97.30;;;;;;4884940;29;20477;-73
2020/12/20 07:24:34;;;;;;;8.20;4.93;;;3.80;97.30;;;;;;4886719;29;20480;-73
2020/12/20 07:27:02;;;;;;;11.10;5.50;;;3.90;97.30;;;;;;4878251;29;20522;-73
2020/12/20 07:29:35;;;;;;;6.70;4.37;;;3.80;97.30;;;;;;4879485;29;20419;-74
2020/12/20 07:32:04;;;;;;;8.03;4.87;;;3.80;97.30;;;;;;4877600;29;20451;-72
2020/12/20 07:34:32;;;;;;;10.13;6.20;;;3.80;97.30;;;;;;4879464;29;20849;-73
2020/12/20 07:36:58;;;;;;;8.90;5.00;;;3.80;97.30;;;;;;4876135;29;20430;-72
2020/12/20 07:39:24;;;;;;;8.57;5.53;;;3.90;97.30;;;;;;4877756;29;20786;-72
2020/12/20 07:41:51;;;;;;;8.10;4.87;;;3.80;97.30;;;;;;4877511;29;21190;-74
2020/12/20 07:44:18;;;;;;;10.17;5.23;;;3.90;97.30;;;;;;4878025;29;20413;-72
2020/12/20 07:47:08;;;;;;;7.30;5.10;;;4.00;97.30;;;;;;4878776;29;20459;-75
2020/12/20 07:49:34;;;;;;;9.40;4.93;;;4.00;97.30;;;;;;4878239;29;20548;-75
2020/12/20 07:52:09;;;;;;;10.77;6.00;;;4.00;97.30;;;;;;4878853;29;20578;-75
2020/12/20 07:54:35;;;;;;;8.10;4.47;;;4.00;97.30;;;;;;4877805;29;20462;-73
2020/12/20 07:57:05;;;;;;;8.77;5.00;;;4.00;97.30;;;;;;4876577;29;20928;-73
2020/12/20 07:59:37;;;;;;;7.63;4.90;;;4.00;97.30;;;;;;4878105;29;20426;-74
2020/12/20 08:02:03;;;;;;;10.70;5.30;;;4.00;97.30;;;;;;4879110;29;20470;-74
2020/12/20 08:04:30;;;;;;;10.33;5.30;;;4.10;97.30;;;;;;4879284;29;20426;-73
2020/12/20 08:07:05;;;;;;;11.43;5.97;;;4.10;97.30;;;;;;4877931;29;20430;-73
2020/12/20 08:09:31;;;;;;;9.90;5.90;;;4.10;97.30;;;;;;4876339;29;20433;-73
2020/12/20 08:12:01;;;;;;;10.03;5.30;;;4.10;97.30;;;;;;4877593;29;20454;-74
2020/12/20 08:14:27;;;;;;;9.87;5.10;;;4.20;97.30;;;;;;4882998;29;20466;-73
2020/12/20 08:16:54;;;;;;;12.63;4.87;;;4.20;97.30;;;;;;4877343;29;20410;-72
2020/12/20 08:19:28;;;;;;;9.50;5.33;;;4.20;97.30;;;;;;4877168;29;20512;-73
2020/12/20 08:22:11;;;;;;;9.00;5.23;;;4.30;97.30;;;;;;4897120;29;20433;-74
2020/12/20 08:24:37;;;;;;;8.97;5.10;;;4.30;97.30;;;;;;4880797;29;20425;-73
2020/12/20 08:27:17;;;;;;;11.13;5.80;;;4.30;97.30;;;;;;4884376;29;20422;-73
2020/12/20 08:29:48;;;;;;;8.70;5.27;;;4.30;97.30;;;;;;4882258;29;20418;-73
2020/12/20 08:32:20;;;;;;;9.93;5.37;;;4.40;97.30;;;;;;4883871;29;20442;-73
2020/12/20 08:34:48;;;;;;;10.57;5.40;;;4.40;97.30;;;;;;4884633;29;20508;-73
2020/12/20 08:37:19;;;;;;;11.43;5.53;;;4.50;97.30;;;;;;4883381;29;20836;-73
2020/12/20 08:39:47;;;;;;;9.23;5.77;;;4.60;97.30;;;;;;4897430;29;20414;-73
2020/12/20 08:42:17;;;;;;;9.43;5.50;;;4.70;97.30;;;;;;4884903;29;20464;-73
2020/12/20 08:44:51;;;;;;;12.70;6.30;;;4.70;97.30;;;;;;4884122;29;20430;-73
2020/12/20 08:47:21;;;;;;;9.50;6.03;;;4.70;97.30;;;;;;4884272;29;20788;-73
2020/12/20 08:49:55;;;;;;;9.30;5.50;;;4.80;97.30;;;;;;4885677;29;20817;-72
2020/12/20 08:52:21;;;;;;;7.00;4.70;;;4.90;97.30;;;;;;4882526;29;20529;-73
2020/12/20 08:54:49;;;;;;;8.80;4.43;;;5.00;97.30;;;;;;4883861;29;20517;-73
2020/12/20 08:57:16;;;;;;;8.47;4.87;;;5.00;97.30;;;;;;4884111;29;20422;-72
2020/12/20 08:59:46;;;;;;;8.73;4.53;;;5.10;97.30;;;;;;4885157;29;20402;-72
2020/12/20 09:02:24;;;;;;;9.33;4.90;;;5.20;97.30;;;;;;4883898;29;20522;-72
2020/12/20 09:05:09;;;;;;;9.23;5.10;;;5.30;97.30;;;;;;4884002;29;20432;-72
2020/12/20 09:07:49;;;;;;;9.03;5.17;;;5.40;97.30;;;;;;4884192;29;20450;-72
2020/12/20 09:10:19;;;;;;;10.60;5.00;;;5.50;97.30;;;;;;4884065;29;20422;-72
2020/12/20 09:12:50;;;;;;;10.20;5.83;;;5.50;97.30;;;;;;4884023;29;20437;-73
2020/12/20 09:15:17;;;;;;;7.23;4.87;;;5.50;97.30;;;;;;4883436;29;20466;-73
2020/12/20 09:17:45;;;;;;;8.53;4.97;;;5.60;97.30;;;;;;4883451;29;20410;-72
2020/12/20 09:20:15;;;;;;;7.63;4.87;;;5.70;97.30;;;;;;4883314;29;20413;-73
2020/12/20 09:22:52;;;;;;;8.70;5.23;;;5.80;97.30;;;;;;4883464;29;20775;-73
2020/12/20 09:25:40;;;;;;;10.50;5.20;;;5.80;97.30;;;;;;4883737;29;20407;-73
2020/12/20 09:28:11;;;;;;;7.03;4.53;;;5.90;97.30;;;;;;4883799;29;20880;-73
2020/12/20 09:30:51;;;;;;;10.03;5.50;;;5.90;97.30;;;;;;4885151;29;20453;-73
2020/12/20 09:33:20;;;;;;;7.33;4.97;;;5.90;97.30;;;;;;4880207;29;20418;-73
2020/12/20 09:35:53;;;;;;;7.17;4.30;;;5.90;97.30;;;;;;4882100;29;20458;-72
2020/12/20 09:38:19;;;;;;;9.27;5.27;;;5.90;97.30;;;;;;4882149;29;20411;-72
2020/12/20 09:40:45;;;;;;;9.53;4.90;;;5.90;97.30;;;;;;4880830;29;20525;-72
2020/12/20 09:43:20;;;;;;;6.90;3.80;;;5.90;97.30;;;;;;4879845;29;20461;-72
2020/12/20 09:45:46;;;;;;;8.63;4.87;;;5.90;97.30;;;;;;4880568;29;20994;-72
2020/12/20 09:48:12;;;;;;;9.50;4.23;;;6.00;97.30;;;;;;4880551;29;20445;-72
2020/12/20 09:50:38;;;;;;;6.77;4.13;;;6.10;97.30;;;;;;4880524;29;20878;-72
2020/12/20 09:53:04;;;;;;;7.30;4.80;;;6.40;97.30;;;;;;4879509;29;20458;-73
2020/12/20 09:55:31;;;;;;;8.20;4.27;;;6.50;97.30;;;;;;4880199;29;20280;-72
2020/12/20 09:57:57;;;;;;;9.00;4.67;;;6.60;97.30;;;;;;4881394;29;20419;-73
2020/12/20 10:00:23;;;;;;;8.83;4.67;;;6.70;97.30;;;;;;4880470;29;20502;-72
2020/12/20 10:02:49;;;;;;;8.30;4.50;;;6.80;97.30;;;;;;4879932;29;20487;-72
2020/12/20 10:05:15;;;;;;;8.53;4.70;;;6.80;97.30;;;;;;4879413;29;20963;-73
2020/12/20 10:07:40;;;;;;;8.10;4.93;;;6.80;97.30;;;;;;4879395;29;20185;-73
2020/12/20 10:10:06;;;;;;;12.10;5.50;;;6.90;97.30;;;;;;4880330;29;20758;-72
2020/12/20 10:12:36;;;;;;;11.10;4.87;;;6.90;97.30;;;;;;4879759;29;20216;-72
2020/12/20 10:15:02;;;;;;;8.87;5.17;;;7.00;97.30;;;;;;4895149;29;20241;-72
2020/12/20 10:17:28;;;;;;;6.90;4.40;;;7.00;97.30;;;;;;4879940;29;20466;-73
2020/12/20 10:19:53;;;;;;;7.70;5.17;;;7.00;97.30;;;;;;4880780;29;20914;-73
2020/12/20 10:22:20;;;;;;;8.63;5.23;;;7.10;97.30;;;;;;4881269;29;20194;-72
2020/12/20 10:24:48;;;;;;;11.77;5.23;;;7.10;97.30;;;;;;4879237;29;20182;-72
2020/12/20 10:27:14;;;;;;;9.03;4.57;;;7.10;97.20;;;;;;4879532;29;20422;-72
2020/12/20 10:29:40;;;;;;;7.97;4.87;;;7.10;97.20;;;;;;4880232;29;20446;-72
2020/12/20 10:32:06;;;;;;;8.30;4.90;;;7.00;97.30;;;;;;4879970;29;20445;-72
2020/12/20 10:34:31;;;;;;;9.53;4.80;;;7.00;97.30;;;;;;4879077;29;20268;-72
2020/12/20 10:36:57;;;;;;;9.30;4.93;;;7.00;97.20;;;;;;4879296;29;20616;-73
2020/12/20 10:39:23;;;;;;;9.00;5.90;;;7.00;97.30;;;;;;4880834;29;20202;-73
2020/12/20 10:41:52;;;;;;;9.23;5.10;;;7.00;97.30;;;;;;4880706;29;20627;-73
2020/12/20 10:44:24;;;;;;;7.60;5.20;;;7.00;97.30;;;;;;4879889;29;20204;-72
2020/12/20 10:46:50;;;;;;;8.20;4.77;;;7.00;97.30;;;;;;4880765;29;20498;-72
2020/12/20 10:49:18;;;;;;;8.17;5.07;;;7.00;97.30;;;;;;4879691;29;20418;-72
2020/12/20 10:51:45;;;;;;;10.23;5.57;;;6.90;97.30;;;;;;4879333;29;20438;-73
2020/12/20 10:54:11;;;;;;;10.70;5.43;;;6.90;97.30;;;;;;4879318;29;20423;-72
2020/12/20 10:56:37;;;;;;;8.30;5.30;;;6.90;97.30;;;;;;4878645;29;20792;-72
2020/12/20 10:59:03;;;;;;;11.00;5.30;;;6.90;97.30;;;;;;4879651;29;20501;-72
2020/12/20 11:01:28;;;;;;;8.47;5.03;;;6.90;97.30;;;;;;4879734;29;20220;-72
2020/12/20 11:03:54;;;;;;;7.77;5.13;;;6.90;97.30;;;;;;4877839;29;20426;-72
2020/12/20 11:06:21;;;;;;;10.40;5.40;;;6.80;97.30;;;;;;4878914;29;20273;-72
2020/12/20 11:08:48;;;;;;;11.20;5.90;;;6.70;97.30;;;;;;4878689;29;20201;-72
2020/12/20 11:11:15;;;;;;;10.97;5.70;;;6.60;97.30;;;;;;4880263;29;20438;-72
2020/12/20 11:13:42;;;;;;;10.10;5.77;;;6.60;97.30;;;;;;4879424;29;20921;-72
2020/12/20 11:16:26;;;;;;;8.80;5.67;;;6.50;97.30;;;;;;4878812;29;20466;-71
2020/12/20 11:18:52;;;;;;;12.67;6.37;;;6.50;97.30;;;;;;4879905;29;20429;-72
2020/12/20 11:21:18;;;;;;;10.70;5.13;;;6.50;97.30;;;;;;4878905;29;20438;-73
2020/12/20 11:23:46;;;;;;;9.97;5.50;;;6.50;97.30;;;;;;4878526;29;20509;-72
2020/12/20 11:26:21;;;;;;;15.03;5.30;;;6.40;97.30;;;;;;4878889;29;20918;-72
2020/12/20 11:28:49;;;;;;;9.83;5.50;;;6.40;97.30;;;;;;4878705;29;20489;-72
2020/12/20 11:31:16;;;;;;;8.70;5.00;;;6.40;97.30;;;;;;4878715;29;20446;-72
2020/12/20 11:33:42;;;;;;;9.33;5.40;;;6.40;97.30;;;;;;4879661;29;20917;-72
2020/12/20 11:36:14;;;;;;;12.47;5.97;;;6.40;97.30;;;;;;4878512;29;20837;-72
2020/12/20 11:38:39;;;;;;;10.10;5.63;;;6.40;97.30;;;;;;4878627;29;20837;-73
2020/12/20 11:41:05;;;;;;;10.70;5.30;;;6.40;97.30;;;;;;4880231;29;20434;-72
2020/12/20 11:43:31;;;;;;;13.30;5.87;;;6.50;97.30;;;;;;4878347;29;20529;-72
2020/12/20 11:45:57;;;;;;;10.97;5.80;;;6.50;97.30;;;;;;4878574;29;20645;-72
2020/12/20 11:48:23;;;;;;;9.30;5.20;;;6.50;97.30;;;;;;4878408;29;20422;-72
2020/12/20 11:50:49;;;;;;;9.17;5.40;;;6.60;97.30;;;;;;4877882;29;20458;-72
2020/12/20 11:53:14;;;;;;;8.90;5.10;;;6.70;97.30;;;;;;4878217;29;20679;-73
2020/12/20 11:55:41;;;;;;;10.77;5.73;;;6.80;97.30;;;;;;4876834;29;20229;-72
2020/12/20 11:58:13;;;;;;;13.20;6.57;;;7.10;97.30;;;;;;4878474;29;20186;-72
2020/12/20 12:00:43;;;;;;;11.13;6.37;;;7.40;97.30;;;;;;4879157;29;20446;-72
2020/12/20 12:03:08;;;;;;;10.57;5.90;;;7.60;97.30;;;;;;4877847;29;20482;-72
2020/12/20 12:05:37;;;;;;;10.10;6.23;;;7.80;97.30;;;;;;4877757;29;20423;-72
2020/12/20 12:08:06;;;;;;;12.30;6.00;;;7.90;97.30;;;;;;4879224;29;20190;-73
2020/12/20 12:10:42;;;;;;;10.23;5.80;;;7.90;96.60;;;;;;4879772;29;20502;-72
2020/12/20 12:13:09;;;;;;;9.50;4.97;;;7.80;96.70;;;;;;4889765;29;20448;-73
2020/12/20 12:15:36;;;;;;;7.90;5.63;;;7.70;97.10;;;;;;4877851;29;20466;-72
2020/12/20 12:18:03;;;;;;;13.83;6.87;;;7.70;97.30;;;;;;4877495;29;20422;-72
2020/12/20 12:20:29;;;;;;;10.20;5.97;;;7.60;97.10;;;;;;4878420;29;20454;-73
2020/12/20 12:22:55;;;;;;;11.33;5.60;;;7.60;97.30;;;;;;4878605;29;20422;-72
2020/12/20 12:25:21;;;;;;;9.20;5.67;;;7.60;97.30;;;;;;4878406;29;20509;-73
2020/12/20 12:27:46;;;;;;;9.67;5.30;;;7.60;97.30;;;;;;4877073;29;20277;-73
2020/12/20 12:30:13;;;;;;;11.00;5.33;;;7.70;97.30;;;;;;4878489;29;20189;-72
2020/12/20 12:32:38;;;;;;;11.53;6.50;;;7.70;96.80;;;;;;4877448;29;20223;-72
2020/12/20 12:35:05;;;;;;;7.10;4.60;;;7.80;96.20;;;;;;4876977;29;20465;-72
2020/12/20 12:37:31;;;;;;;11.10;6.23;;;7.90;96.10;;;;;;4877303;29;20200;-72
2020/12/20 12:39:57;;;;;;;14.10;6.67;;;7.90;97.10;;;;;;4877009;29;20618;-72
2020/12/20 12:42:23;;;;;;;10.33;6.13;;;8.00;97.30;;;;;;4877645;29;20237;-72
2020/12/20 12:44:50;;;;;;;12.47;6.90;;;8.10;97.30;;;;;;4876885;29;20311;-73
2020/12/20 12:47:16;;;;;;;11.30;5.80;;;8.10;96.90;;;;;;4876715;29;20216;-73
2020/12/20 12:49:42;;;;;;;11.07;6.07;;;8.20;97.10;;;;;;4876175;29;20445;-72
2020/12/20 12:52:08;;;;;;;8.97;5.30;;;8.30;96.70;;;;;;4876608;29;20442;-73
2020/12/20 12:54:34;;;;;;;10.43;5.53;;;8.50;95.90;;;;;;4872602;29;20836;-72
2020/12/20 12:57:01;;;;;;;11.73;6.50;;;8.70;95.90;;;;;;4877209;29;20182;-73
2020/12/20 12:59:30;;;;;;;11.67;6.50;;;8.70;95.20;;;;;;4875736;29;20186;-73
2020/12/20 13:01:56;;;;;;;10.87;5.50;;;8.70;95.20;;;;;;4876526;29;20466;-73
2020/12/20 13:04:23;;;;;;;11.33;5.57;;;8.70;95.10;;;;;;4877380;29;20426;-73
2020/12/20 13:06:52;;;;;;;10.17;5.80;;;8.70;94.90;;;;;;4877419;29;20429;-72
2020/12/20 13:09:17;;;;;;;9.30;5.70;;;8.70;95.10;;;;;;4881024;29;20430;-73
2020/12/20 13:11:43;;;;;;;9.03;4.90;;;8.60;94.70;;;;;;4880242;29;20454;-73
2020/12/20 13:14:09;;;;;;;7.73;4.53;;;8.60;94.80;;;;;;4879443;29;20272;-72
2020/12/20 13:16:36;;;;;;;11.97;5.50;;;8.60;94.20;;;;;;4876334;29;20672;-73
2020/12/20 13:19:02;;;;;;;7.40;4.93;;;8.70;93.20;;;;;;4879923;29;20185;-73
2020/12/20 13:21:28;;;;;;;9.57;5.40;;;8.90;92.70;;;;;;4878912;29;20457;-73
2020/12/20 13:23:54;;;;;;;6.97;4.30;;;9.10;91.30;;;;;;4879760;29;20178;-73
2020/12/20 13:26:21;;;;;;;8.53;5.20;;;9.20;91.10;;;;;;4878525;29;20190;-73
2020/12/20 13:28:48;;;;;;;13.40;5.30;;;9.10;90.50;;;;;;4879633;29;20426;-73
2020/12/20 13:31:18;;;;;;;6.00;3.70;;;9.20;90.70;;;;;;4880207;29;20472;-73
2020/12/20 13:33:44;;;;;;;7.30;4.83;;;9.20;90.20;;;;;;4879563;29;20450;-73
2020/12/20 13:36:09;;;;;;;7.90;4.60;;;9.10;90.50;;;;;;4879978;29;20473;-73
2020/12/20 13:38:36;;;;;;;7.60;4.77;;;8.80;90.80;;;;;;4879632;29;20222;-73
2020/12/20 13:41:02;;;;;;;12.07;5.23;;;8.60;91.30;;;;;;4880911;29;20209;-73
2020/12/20 13:43:29;;;;;;;8.70;5.10;;;8.50;92.10;;;;;;4880039;29;20502;-73
2020/12/20 13:45:55;;;;;;;7.53;4.87;;;8.30;92.50;;;;;;4879775;29;20469;-73
2020/12/20 13:48:22;;;;;;;7.53;5.20;;;8.20;92.40;;;;;;4879571;29;20503;-73
2020/12/20 13:50:48;;;;;;;8.10;5.00;;;8.10;92.70;;;;;;4879856;29;20202;-73
2020/12/20 13:53:14;;;;;;;10.00;5.30;;;8.00;93.00;;;;;;4879654;29;20427;-73
2020/12/20 13:55:39;;;;;;;7.73;4.80;;;7.90;93.20;;;;;;4879646;29;20541;-73
2020/12/20 13:58:05;;;;;;;9.57;4.80;;;7.90;93.70;;;;;;4879692;29;20427;-73
2020/12/20 14:00:37;;;;;;;11.07;5.43;;;7.80;93.60;;;;;;4879045;29;20273;-73
2020/12/20 14:03:06;;;;;;;9.60;5.27;;;7.70;93.90;;;;;;4879570;29;20189;-73
2020/12/20 14:05:32;;;;;;;9.73;5.37;;;7.70;94.00;;;;;;4879584;29;20426;-73
2020/12/20 14:07:58;;;;;;;9.43;5.47;;;7.60;94.50;;;;;;4879442;29;20491;-73
2020/12/20 14:10:24;;;;;;;9.80;5.43;;;7.50;94.70;;;;;;4879264;29;20430;-73
2020/12/20 14:12:50;;;;;;;8.83;5.87;;;7.50;94.80;;;;;;4879592;29;20434;-72
2020/12/20 14:15:16;;;;;;;9.87;5.43;;;7.40;94.90;;;;;;4879049;29;20462;-73
2020/12/20 14:17:42;;;;;;;9.73;5.37;;;7.30;95.00;;;;;;4879339;29;20272;-73
2020/12/20 14:20:10;;;;;;;11.70;6.53;;;7.30;95.20;;;;;;4878385;29;20200;-73
2020/12/20 14:22:37;;;;;;;10.30;5.57;;;7.30;95.50;;;;;;4879446;29;20617;-73
2020/12/20 14:25:03;;;;;;;8.40;5.37;;;7.20;95.70;;;;;;4878676;29;20455;-73
2020/12/20 14:27:31;;;;;;;9.67;6.13;;;7.20;95.90;;;;;;4879300;29;20490;-73
2020/12/20 14:29:58;;;;;;;11.90;6.50;;;7.10;96.00;;;;;;4878800;29;20456;-73
2020/12/20 14:32:24;;;;;;;13.00;7.00;;;7.10;96.30;;;;;;4878968;29;20881;-72
2020/12/20 14:34:50;;;;;;;11.10;7.40;;;7.00;96.40;;;;;;4879623;29;20502;-72
2020/12/20 14:37:15;;;;;;;11.97;6.30;;;7.00;96.50;;;;;;4878407;29;20419;-73
2020/12/20 14:39:42;;;;;;;14.27;7.33;;;7.00;96.90;;;;;;4877482;29;20418;-73
2020/12/20 14:42:11;;;;;;;13.10;7.00;;;6.90;97.00;;;;;;4879052;29;20198;-72
2020/12/20 14:44:38;;;;;;;14.90;5.90;;;6.90;97.20;;;;;;4879424;29;20425;-73
2020/12/20 14:47:04;;;;;;;10.90;6.13;;;6.80;97.30;;;;;;4879595;29;20435;-73
2020/12/20 14:49:30;;;;;;;13.20;6.60;;;6.80;97.30;;;;;;4878780;29;20426;-72
2020/12/20 14:51:55;;;;;;;11.27;6.23;;;6.70;97.30;;;;;;4880048;29;20438;-73
2020/12/20 14:54:21;;;;;;;11.80;6.05;;;6.70;97.30;;;;;;4878683;29;20217;-72
2020/12/20 14:56:51;;;;;;;12.83;6.10;;;6.60;97.30;;;;;;4878024;29;20237;-72
2020/12/20 14:59:17;;;;;;;9.97;6.30;;;6.60;97.30;;;;;;4879017;29;20194;-73
2020/12/20 15:01:50;;;;;;;11.70;7.10;;;6.50;97.30;;;;;;4878383;29;20458;-73
2020/12/20 15:04:17;;;;;;;13.93;7.93;;;6.40;97.30;;;;;;4879689;29;20462;-73
2020/12/20 15:06:43;;;;;;;9.63;6.40;;;6.40;97.30;;;;;;4878625;29;20422;-73
2020/12/20 15:09:09;;;;;;;11.90;6.80;;;6.40;97.30;;;;;;4879032;29;20423;-73
2020/12/20 15:11:35;;;;;;;11.87;6.33;;;6.30;97.30;;;;;;4879557;29;20465;-73
2020/12/20 15:14:02;;;;;;;16.00;7.20;;;6.30;97.30;;;;;;4878433;29;20437;-73
2020/12/20 15:16:28;;;;;;;14.90;7.90;;;6.20;97.30;;;;;;4878526;29;20461;-72
2020/12/20 15:18:53;;;;;;;12.60;7.20;;;6.20;97.30;;;;;;4876589;29;20490;-73
2020/12/20 15:21:19;;;;;;;12.83;7.50;;;6.10;97.30;;;;;;4869515;29;20199;-73
2020/12/20 15:23:45;;;;;;;12.87;7.43;;;6.10;97.30;;;;;;4875712;29;20182;-73
2020/12/20 15:26:13;;;;;;;17.93;7.40;;;6.10;97.30;;;;;;4878008;29;20647;-73
2020/12/20 15:28:39;;;;;;;13.97;7.80;;;6.10;97.30;;;;;;4878444;29;20179;-72
2020/12/20 15:31:07;;;;;;;13.30;7.30;;;6.10;97.30;;;;;;4878712;29;20502;-72
2020/12/20 15:33:33;;;;;;;10.70;6.40;;;6.10;97.30;;;;;;4878229;29;20204;-73
2020/12/20 15:35:59;;;;;;;14.93;7.00;;;6.30;97.30;;;;;;4879211;29;20959;-73
2020/12/20 15:38:26;;;;;;;11.20;7.00;;;6.30;97.30;;;;;;4878159;29;20186;-73
2020/12/20 15:40:52;;;;;;;14.23;6.90;;;6.30;97.30;;;;;;4878380;29;20443;-73
2020/12/20 15:43:17;;;;;;;14.50;7.60;;;6.30;97.30;;;;;;4877924;29;20423;-74
2020/12/20 15:45:43;;;;;;;14.20;7.03;;;6.30;97.30;;;;;;4877894;29;20237;-73
2020/12/20 15:48:08;;;;;;;14.97;7.43;;;6.30;97.30;;;;;;4878050;29;20233;-73
2020/12/20 15:50:34;;;;;;;12.03;7.20;;;6.20;97.30;;;;;;4879151;29;21954;-73
2020/12/20 15:53:00;;;;;;;12.00;7.13;;;6.20;97.30;;;;;;4877806;29;20185;-73
2020/12/20 15:55:25;;;;;;;14.23;7.43;;;6.30;97.30;;;;;;4877731;29;20221;-73
2020/12/20 15:57:51;;;;;;;17.57;8.10;;;6.30;97.30;;;;;;4877733;29;20653;-73
2020/12/20 16:00:17;;;;;;;16.77;8.37;;;6.30;97.30;;;;;;4877842;29;20219;-73
2020/12/20 16:02:43;;;;;;;14.50;7.63;;;6.20;97.30;;;;;;4877544;29;20194;-73
2020/12/20 16:05:12;;;;;;;17.23;8.10;;;6.10;97.30;;;;;;4877644;29;20186;-73
2020/12/20 16:07:38;;;;;;;14.73;7.70;;;6.10;97.30;;;;;;4877525;29;20881;-73
2020/12/20 16:10:04;;;;;;;16.70;8.10;;;6.00;97.30;;;;;;4876900;29;21001;-73
2020/12/20 16:12:30;;;;;;;16.73;8.13;;;5.90;97.30;;;;;;4874822;29;20210;-73
2020/12/20 16:14:56;;;;;;;13.87;8.60;;;5.90;97.30;;;;;;4878079;29;20464;-73
2020/12/20 16:17:22;;;;;;;12.23;7.50;;;5.90;97.30;;;;;;4877365;29;20182;-73
2020/12/20 16:19:48;;;;;;;15.10;8.27;;;5.90;97.30;;;;;;4876357;29;20529;-73
2020/12/20 16:22:14;;;;;;;13.60;7.57;;;5.90;97.30;;;;;;4875684;29;20453;-73
2020/12/20 16:24:40;;;;;;;13.50;8.33;;;5.90;97.30;;;;;;4877340;29;20422;-73
2020/12/20 16:27:06;;;;;;;13.10;8.47;;;5.90;97.30;;;;;;4877282;29;20281;-73
2020/12/20 16:29:32;;;;;;;15.50;9.90;;;6.00;97.30;;;;;;4877314;29;20224;-73
2020/12/20 16:31:58;;;;;;;17.77;8.90;;;6.00;97.30;;;;;;4878104;29;20470;-74
2020/12/20 16:34:29;;;;;;;17.10;9.50;;;6.00;97.30;;;;;;4877035;29;20190;-73
2020/12/20 16:36:57;;;;;;;17.33;9.00;;;6.00;97.30;;;;;;4876973;29;20434;-72
2020/12/20 16:39:23;;;;;;;16.97;8.63;;;6.00;97.30;;;;;;4877513;29;20954;-73
2020/12/20 16:41:49;;;;;;;15.30;8.90;;;6.00;97.30;;;;;;4877588;29;20442;-73
2020/12/20 16:44:19;;;;;;;16.07;8.73;;;6.00;97.30;;;;;;4882184;29;20455;-73
2020/12/20 16:46:46;;;;;;;16.10;8.57;;;6.00;97.30;;;;;;4881013;29;20430;-73
2020/12/20 16:49:13;;;;;;;15.43;8.67;;;6.00;97.30;;;;;;4880889;29;20533;-73
2020/12/20 16:51:40;;;;;;;16.07;8.63;;;5.90;97.30;;;;;;4881973;29;20513;-73
2020/12/20 16:54:08;;;;;;;15.80;9.40;;;5.90;97.30;;;;;;4880926;29;20457;-73
2020/12/20 16:56:35;;;;;;;15.10;8.50;;;5.90;97.30;;;;;;4881795;29;20478;-73
2020/12/20 16:59:01;;;;;;;14.30;8.07;;;5.80;97.30;;;;;;4880937;29;20975;-73
2020/12/20 17:01:27;;;;;;;14.53;8.13;;;5.80;97.30;;;;;;4880681;29;20481;-73
2020/12/20 17:03:54;;;;;;;14.93;8.67;;;5.80;97.30;;;;;;4880345;29;20434;-73
2020/12/20 17:06:20;;;;;;;14.40;8.57;;;5.80;97.30;;;;;;4880940;29;20477;-73
2020/12/20 17:08:46;;;;;;;13.27;8.30;;;5.80;97.30;;;;;;4882054;29;20464;-73
2020/12/20 17:11:13;;;;;;;16.70;9.13;;;5.80;97.30;;;;;;4881965;29;20446;-73
2020/12/20 17:13:43;;;;;;;17.87;9.00;;;5.80;97.30;;;;;;4881604;29;20434;-73
2020/12/20 17:16:13;;;;;;;17.00;8.40;;;5.80;97.30;;;;;;4880644;29;20986;-73
2020/12/20 17:18:40;;;;;;;14.93;7.83;;;5.70;97.30;;;;;;4880532;29;20426;-73
2020/12/20 17:21:14;;;;;;;15.47;7.87;;;5.70;97.30;;;;;;4880675;29;20505;-73
2020/12/20 17:23:39;;;;;;;16.03;8.37;;;5.70;97.30;;;;;;4881474;29;20801;-73
2020/12/20 17:26:05;;;;;;;14.90;8.03;;;5.70;97.30;;;;;;4881676;29;20422;-73
2020/12/20 17:28:32;;;;;;;19.20;9.60;;;5.70;97.30;;;;;;4880681;29;20190;-73
2020/12/20 17:30:58;;;;;;;16.53;8.90;;;5.70;97.30;;;;;;4880624;29;20209;-73
2020/12/20 17:33:24;;;;;;;16.70;9.43;;;5.70;97.30;;;;;;4880915;29;20503;-73
2020/12/20 17:35:50;;;;;;;15.67;8.00;;;5.70;97.30;;;;;;4881016;29;20469;-72
2020/12/20 17:38:17;;;;;;;13.57;8.53;;;5.90;97.30;;;;;;4879960;29;20178;-73
2020/12/20 17:40:46;;;;;;;15.37;8.80;;;5.80;97.30;;;;;;4879537;29;20955;-73
2020/12/20 17:43:16;;;;;;;17.17;9.63;;;5.80;97.30;;;;;;4885250;29;20929;-73
2020/12/20 17:45:42;;;;;;;15.57;7.97;;;5.80;97.30;;;;;;4877803;29;20425;-73
2020/12/20 17:48:09;;;;;;;17.47;9.00;;;5.70;97.30;;;;;;4879877;29;20433;-73
2020/12/20 17:50:35;;;;;;;19.50;8.73;;;5.80;97.30;;;;;;4879664;29;20418;-72
2020/12/20 17:53:01;;;;;;;17.83;8.90;;;5.70;97.30;;;;;;4879417;29;20454;-73
2020/12/20 17:55:26;;;;;;;16.00;8.70;;;5.70;97.30;;;;;;4878874;29;20493;-73
2020/12/20 17:57:52;;;;;;;13.03;7.57;;;5.70;97.30;;;;;;4879575;29;20229;-73
2020/12/20 18:00:18;;;;;;;16.07;8.03;;;5.60;97.30;;;;;;4892777;29;20186;-72
2020/12/20 18:02:43;;;;;;;15.90;9.40;;;5.60;97.30;;;;;;4878915;29;20193;-72
2020/12/20 18:05:09;;;;;;;15.47;8.37;;;5.60;97.30;;;;;;4879392;29;20682;-72
2020/12/20 18:07:36;;;;;;;21.90;9.60;;;5.60;97.30;;;;;;4879611;29;20214;-72
2020/12/20 18:10:03;;;;;;;18.77;9.07;;;5.60;97.30;;;;;;4880903;29;20501;-73
2020/12/20 18:12:29;;;;;;;19.80;10.53;;;5.60;97.30;;;;;;4879696;29;20712;-74
2020/12/20 18:14:55;;;;;;;20.30;10.47;;;5.60;97.30;;;;;;4879354;29;20466;-72
2020/12/20 18:17:20;;;;;;;16.40;10.10;;;5.60;97.30;;;;;;4879990;29;20830;-72
2020/12/20 18:19:46;;;;;;;17.80;9.40;;;5.60;97.30;;;;;;4879999;29;20178;-72
2020/12/20 18:22:12;;;;;;;17.80;10.27;;;5.60;97.30;;;;;;4879633;29;20202;-72
2020/12/20 18:24:41;;;;;;;14.90;8.77;;;5.60;97.30;;;;;;4879431;29;20211;-72
2020/12/20 18:27:09;;;;;;;14.07;8.40;;;5.60;97.30;;;;;;4879659;29;20201;-73
2020/12/20 18:29:34;;;;;;;20.63;9.37;;;5.50;97.30;;;;;;4892800;29;20430;-73
2020/12/20 18:32:03;;;;;;;16.77;9.50;;;5.50;97.30;;;;;;4880565;29;20442;-72
2020/12/20 18:34:29;;;;;;;16.97;9.70;;;5.50;97.30;;;;;;4879242;29;20563;-73
2020/12/20 18:36:55;;;;;;;18.00;10.70;;;5.40;97.30;;;;;;4879780;29;20441;-72
2020/12/20 18:39:21;;;;;;;16.33;9.07;;;5.40;97.30;;;;;;4881022;29;20171;-72
2020/12/20 18:41:53;;;;;;;22.20;8.73;;;5.40;97.30;;;;;;4879690;29;20209;-72
2020/12/20 18:44:28;;;;;;;17.07;9.33;;;5.40;97.30;;;;;;4879275;29;20182;-72
2020/12/20 18:46:54;;;;;;;16.43;8.20;;;5.40;97.30;;;;;;4879741;29;20438;-72
2020/12/20 18:49:19;;;;;;;14.70;8.73;;;5.40;97.30;;;;;;4879405;29;20415;-72
2020/12/20 18:51:45;;;;;;;18.03;9.90;;;5.40;97.30;;;;;;4880542;29;20202;-72
2020/12/20 18:54:14;;;;;;;21.30;9.40;;;5.40;97.30;;;;;;4880129;29;20234;-73